createdAt,value
2023-05-19T00:02:36.058Z,92200.53
2023-05-19T00:05:22.183Z,92202.31
2023-05-19T00:08:08.054Z,92200.81
2023-05-19T00:10:54.016Z,92191.16
2023-05-19T00:13:39.969Z,92191.78
2023-05-19T00:16:25.911Z,92193.63
2023-05-19T00:19:11.894Z,92199.03
2023-05-19T00:21:57.900Z,92197.28
2023-05-19T00:24:43.825Z,92195.41
2023-05-19T00:27:29.710Z,92198.59
2023-05-19T00:30:15.634Z,92193.28
2023-05-19T00:33:01.701Z,92191.34
2023-05-19T00:35:49.726Z,92189.81
2023-05-19T00:38:35.605Z,92189.25
2023-05-19T00:41:21.536Z,92180.34
2023-05-19T00:44:07.571Z,92180.28
2023-05-19T00:46:53.433Z,92172.31
2023-05-19T00:49:39.702Z,92173.88
2023-05-19T00:52:25.589Z,92170.41
2023-05-19T00:55:11.456Z,92169.69
2023-05-19T00:57:57.542Z,92161.00
2023-05-19T01:00:43.492Z,92166.78
2023-05-19T01:03:29.905Z,92168.88
2023-05-19T01:06:16.218Z,92164.66
2023-05-19T01:09:02.210Z,92164.16
2023-05-19T01:11:48.124Z,92156.28
2023-05-19T01:14:33.915Z,92161.34
2023-05-19T01:17:19.900Z,92165.75
2023-05-19T01:20:05.917Z,92166.25
2023-05-19T01:22:51.844Z,92168.28
2023-05-19T01:25:37.964Z,92167.00
2023-05-19T01:28:23.975Z,92157.28
2023-05-19T01:31:09.920Z,92169.72
2023-05-19T01:33:55.827Z,92168.03
2023-05-19T01:36:41.848Z,92160.66
2023-05-19T01:39:27.796Z,92165.84
2023-05-19T01:42:13.574Z,92161.84
2023-05-19T01:44:59.329Z,92163.13
2023-05-19T01:47:45.229Z,92161.84
2023-05-19T01:50:31.670Z,92161.44
2023-05-19T01:53:17.677Z,92163.44
2023-05-19T01:56:03.594Z,92164.13
2023-05-19T01:58:49.493Z,92161.28
2023-05-19T02:01:35.315Z,92166.06
2023-05-19T02:04:21.816Z,92164.38
2023-05-19T02:07:08.082Z,92165.06
2023-05-19T02:09:53.966Z,92166.69
2023-05-19T02:12:39.915Z,92172.41
2023-05-19T02:15:25.742Z,92165.41
2023-05-19T02:18:11.769Z,92168.06
2023-05-19T02:20:57.720Z,92165.38
2023-05-19T02:23:43.616Z,92164.03
2023-05-19T02:26:30.136Z,92157.34
2023-05-19T02:29:15.884Z,92157.44
2023-05-19T02:32:02.076Z,92154.34
2023-05-19T02:34:48.248Z,92159.88
2023-05-19T02:37:34.144Z,92158.84
2023-05-19T02:40:20.084Z,92155.06
2023-05-19T02:43:05.878Z,92162.84
2023-05-19T02:45:51.755Z,92159.63
2023-05-19T02:48:37.714Z,92155.03
2023-05-19T02:51:23.620Z,92157.84
2023-05-19T02:54:09.578Z,92154.91
2023-05-19T02:56:55.504Z,92159.88
2023-05-19T02:59:41.352Z,92157.06
2023-05-19T03:02:27.260Z,92149.81
2023-05-19T03:05:13.598Z,92151.00
2023-05-19T03:07:59.506Z,92154.72
2023-05-19T03:10:45.480Z,92158.97
2023-05-19T03:13:31.325Z,92154.81
2023-05-19T03:16:17.219Z,92155.19
2023-05-19T03:19:03.604Z,92152.31
2023-05-19T03:21:49.739Z,92142.59
2023-05-19T03:24:35.777Z,92143.13
2023-05-19T03:27:21.646Z,92139.53
2023-05-19T03:30:07.640Z,92143.34
2023-05-19T03:32:53.700Z,92140.66
2023-05-19T03:35:39.875Z,92135.06
2023-05-19T03:38:25.872Z,92135.59
2023-05-19T03:41:11.910Z,92131.44
2023-05-19T03:43:57.746Z,92139.81
2023-05-19T03:46:43.583Z,92135.09
2023-05-19T03:49:29.394Z,92131.78
2023-05-19T03:52:15.358Z,92139.44
2023-05-19T03:55:01.413Z,92135.50
2023-05-19T03:57:47.244Z,92149.44
2023-05-19T04:00:33.554Z,92142.34
2023-05-19T04:03:20.203Z,92146.34
2023-05-19T04:06:06.461Z,92148.28
2023-05-19T04:08:52.496Z,92149.78
2023-05-19T04:11:38.522Z,92149.25
2023-05-19T04:14:24.472Z,92155.34
2023-05-19T04:17:10.466Z,92160.16
2023-05-19T04:19:56.394Z,92157.38
2023-05-19T04:22:42.357Z,92162.38
2023-05-19T04:25:28.405Z,92160.25
2023-05-19T04:28:14.407Z,92160.25
2023-05-19T04:31:00.470Z,92164.91
2023-05-19T04:33:46.556Z,92160.44
2023-05-19T04:36:32.405Z,92159.16
2023-05-19T04:39:18.353Z,92167.09
2023-05-19T04:42:04.198Z,92161.31
2023-05-19T04:44:50.183Z,92172.22
2023-05-19T04:47:36.157Z,92167.06
2023-05-19T04:50:22.501Z,92169.50
2023-05-19T04:53:08.447Z,92165.72
2023-05-19T04:55:54.301Z,92162.09
2023-05-19T04:58:41.887Z,92166.66
2023-05-19T05:01:28.435Z,92168.31
2023-05-19T05:04:14.724Z,92168.00
2023-05-19T05:07:00.631Z,92171.75
2023-05-19T05:09:46.578Z,92177.06
2023-05-19T05:12:32.431Z,92176.81
2023-05-19T05:15:18.867Z,92174.31
2023-05-19T05:18:04.895Z,92165.75
2023-05-19T05:20:51.090Z,92168.38
2023-05-19T05:23:36.986Z,92161.34
2023-05-19T05:26:23.083Z,92168.28
2023-05-19T05:29:08.830Z,92166.91
2023-05-19T05:31:54.822Z,92160.56
2023-05-19T05:34:40.485Z,92158.13
2023-05-19T05:37:26.435Z,92159.63
2023-05-19T05:40:12.439Z,92159.31
2023-05-19T05:42:58.780Z,92163.72
2023-05-19T05:45:45.335Z,92162.53
2023-05-19T05:48:31.943Z,92170.22
2023-05-19T05:51:17.754Z,92173.63
2023-05-19T05:54:03.709Z,92169.00
2023-05-19T05:56:49.829Z,92161.50
2023-05-19T05:59:35.817Z,92170.88
2023-05-19T06:02:21.965Z,92158.84
2023-05-19T06:05:08.115Z,92160.56
2023-05-19T06:07:54.288Z,92157.91
2023-05-19T06:10:40.766Z,92162.69
2023-05-19T06:13:26.555Z,92157.91
2023-05-19T06:16:12.634Z,92160.94
2023-05-19T06:18:59.119Z,92160.47
2023-05-19T06:21:45.081Z,92165.94
2023-05-19T06:24:31.451Z,92155.63
2023-05-19T06:27:17.413Z,92151.84
2023-05-19T06:30:03.333Z,92152.59
2023-05-19T06:32:49.427Z,92153.22
2023-05-19T06:35:35.267Z,92154.03
2023-05-19T06:38:21.127Z,92154.03
2023-05-19T06:41:07.126Z,92154.44
2023-05-19T06:43:53.101Z,92153.25
2023-05-19T06:46:39.114Z,92150.94
2023-05-19T06:49:25.281Z,92163.84
2023-05-19T06:52:11.186Z,92153.47
2023-05-19T06:54:57.578Z,92150.66
2023-05-19T06:57:43.295Z,92145.28
2023-05-19T07:00:29.301Z,92149.88
2023-05-19T07:03:15.412Z,92150.94
2023-05-19T07:06:01.746Z,92150.69
2023-05-19T07:08:47.900Z,92154.00
2023-05-19T07:11:34.529Z,92145.47
2023-05-19T07:14:20.634Z,92146.75
2023-05-19T07:17:06.888Z,92156.28
2023-05-19T07:19:52.906Z,92153.78
2023-05-19T07:22:38.802Z,92147.16
2023-05-19T07:25:24.741Z,92159.25
2023-05-19T07:28:10.627Z,92159.66
2023-05-19T07:30:56.644Z,92152.84
2023-05-19T07:33:42.719Z,92171.53
2023-05-19T07:36:28.658Z,92155.66
2023-05-19T07:39:14.753Z,92151.16
2023-05-19T07:42:00.747Z,92155.84
2023-05-19T07:44:46.838Z,92152.03
2023-05-19T07:47:33.038Z,92151.63
2023-05-19T07:50:19.237Z,92146.88
2023-05-19T07:53:05.411Z,92145.94
2023-05-19T07:55:51.670Z,92142.34
2023-05-19T07:58:37.498Z,92151.25
2023-05-19T08:01:23.487Z,92145.03
2023-05-19T08:04:11.847Z,92142.63
2023-05-19T08:06:58.931Z,92136.72
2023-05-19T08:09:44.960Z,92138.31
2023-05-19T08:12:30.913Z,92134.72
2023-05-19T08:15:16.814Z,92135.69
2023-05-19T08:18:02.898Z,92137.19
2023-05-19T08:20:48.908Z,92132.19
2023-05-19T08:23:35.091Z,92133.41
2023-05-19T08:26:21.100Z,92129.09
2023-05-19T08:29:07.410Z,92128.78
2023-05-19T08:31:53.476Z,92129.16
2023-05-19T08:34:39.947Z,92130.56
2023-05-19T08:37:25.933Z,92126.47
2023-05-19T08:40:11.823Z,92122.81
2023-05-19T08:42:57.785Z,92118.63
2023-05-19T08:45:43.669Z,92117.47
2023-05-19T08:48:29.649Z,92118.75
2023-05-19T08:51:15.498Z,92118.81
2023-05-19T08:54:01.439Z,92116.81
2023-05-19T08:56:47.382Z,92115.72
2023-05-19T08:59:33.319Z,92124.19
2023-05-19T09:02:21.437Z,92124.88
2023-05-19T09:05:07.736Z,92119.41
2023-05-19T09:07:53.850Z,92124.00
2023-05-19T09:10:39.836Z,92126.09
2023-05-19T09:13:25.892Z,92125.81
2023-05-19T09:16:11.998Z,92118.41
2023-05-19T09:18:58.256Z,92123.38
2023-05-19T09:21:44.670Z,92115.97
2023-05-19T09:24:30.602Z,92114.19
2023-05-19T09:27:16.488Z,92103.53
2023-05-19T09:30:02.411Z,92108.13
2023-05-19T09:32:48.494Z,92102.06
2023-05-19T09:35:34.467Z,92109.13
2023-05-19T09:38:20.556Z,92106.59
2023-05-19T09:41:06.507Z,92106.78
2023-05-19T09:43:52.435Z,92112.34
2023-05-19T09:46:38.482Z,92108.50
2023-05-19T09:49:24.751Z,92111.34
2023-05-19T09:52:11.219Z,92106.81
2023-05-19T09:54:58.620Z,92101.16
2023-05-19T09:57:44.534Z,92104.84
2023-05-19T10:00:30.451Z,92111.72
2023-05-19T10:03:16.886Z,92106.13
2023-05-19T10:06:03.232Z,92101.97
2023-05-19T10:08:49.011Z,92099.22
2023-05-19T10:11:37.061Z,92107.66
2023-05-19T10:14:23.109Z,92094.09
2023-05-19T10:17:08.952Z,92097.78
2023-05-19T10:19:55.019Z,92099.03
2023-05-19T10:22:40.865Z,92099.31
2023-05-19T10:25:26.729Z,92099.03
2023-05-19T10:28:12.680Z,92100.41
2023-05-19T10:30:58.655Z,92106.69
2023-05-19T10:33:44.719Z,92100.41
2023-05-19T10:36:30.778Z,92108.16
2023-05-19T10:39:16.691Z,92102.88
2023-05-19T10:42:02.660Z,92103.03
2023-05-19T10:44:48.541Z,92093.56
2023-05-19T10:47:34.490Z,92106.03
2023-05-19T10:50:20.698Z,92100.50
2023-05-19T10:53:06.876Z,92092.69
2023-05-19T10:55:52.956Z,92099.03
2023-05-19T10:58:38.855Z,92088.94
2023-05-19T11:01:24.799Z,92090.78
2023-05-19T11:04:12.867Z,92091.44
2023-05-19T11:06:58.867Z,92085.91
2023-05-19T11:09:44.752Z,92098.44
2023-05-19T11:12:30.752Z,92085.72
2023-05-19T11:15:16.789Z,92079.78
2023-05-19T11:18:02.739Z,92076.47
2023-05-19T11:20:48.825Z,92079.19
2023-05-19T11:23:35.576Z,92081.41
2023-05-19T11:26:21.980Z,92074.69
2023-05-19T11:29:08.051Z,92067.88
2023-05-19T11:31:53.988Z,92073.09
2023-05-19T11:34:40.072Z,92074.31
2023-05-19T11:37:26.040Z,92087.53
2023-05-19T11:40:11.968Z,92089.88
2023-05-19T11:42:58.006Z,92086.38
2023-05-19T11:45:46.078Z,92081.50
2023-05-19T11:48:32.267Z,92069.41
2023-05-19T11:51:18.256Z,92060.34
2023-05-19T11:54:04.122Z,92078.06
2023-05-19T11:56:50.061Z,92053.16
2023-05-19T11:59:36.484Z,92060.34
2023-05-19T12:02:22.265Z,92061.06
2023-05-19T12:05:08.157Z,92054.28
2023-05-19T12:07:54.113Z,92052.34
2023-05-19T12:10:40.125Z,92048.25
2023-05-19T12:13:26.019Z,92051.25
2023-05-19T12:16:11.975Z,92055.41
2023-05-19T12:18:57.957Z,92050.88
2023-05-19T12:21:43.938Z,92051.63
2023-05-19T12:24:29.870Z,92050.84
2023-05-19T12:27:15.826Z,92056.09
2023-05-19T12:30:01.859Z,92054.59
2023-05-19T12:32:47.787Z,92057.31
2023-05-19T12:35:33.914Z,92053.09
2023-05-19T12:38:20.067Z,92051.50
2023-05-19T12:41:05.966Z,92062.50
2023-05-19T12:43:51.957Z,92058.44
2023-05-19T12:46:37.840Z,92057.28
2023-05-19T12:49:23.934Z,92056.91
2023-05-19T12:52:12.760Z,92051.97
2023-05-19T12:54:59.401Z,92052.78
2023-05-19T12:57:45.299Z,92045.94
2023-05-19T13:00:31.496Z,92044.06
2023-05-19T13:03:17.710Z,92048.78
2023-05-19T13:06:04.150Z,92042.13
2023-05-19T13:08:49.953Z,92035.41
2023-05-19T13:11:35.804Z,92037.66
2023-05-19T13:14:21.840Z,92038.28
2023-05-19T13:17:07.757Z,92034.25
2023-05-19T13:19:53.853Z,92039.56
2023-05-19T13:22:40.099Z,92033.50
2023-05-19T13:25:25.847Z,92024.78
2023-05-19T13:28:11.908Z,92036.09
2023-05-19T13:30:57.740Z,92034.59
2023-05-19T13:33:43.768Z,92036.16
2023-05-19T13:36:29.814Z,92035.03
2023-05-19T13:39:16.010Z,92041.44
2023-05-19T13:42:02.088Z,92045.97
2023-05-19T13:44:48.092Z,92054.66
2023-05-19T13:47:33.980Z,92051.66
2023-05-19T13:50:20.093Z,92048.22
2023-05-19T13:53:06.053Z,92053.91
2023-05-19T13:55:52.057Z,92042.94
2023-05-19T13:58:38.014Z,92046.72
2023-05-19T14:01:23.895Z,92039.19
2023-05-19T14:04:10.238Z,92042.19
2023-05-19T14:06:56.692Z,92045.09
2023-05-19T14:09:42.569Z,92036.16
2023-05-19T14:12:39.381Z,92032.75
2023-05-19T14:15:33.332Z,92039.44
2023-05-19T14:18:19.235Z,92043.34
2023-05-19T14:21:05.137Z,92045.91
2023-05-19T14:23:51.252Z,92041.34
2023-05-19T14:26:37.155Z,92041.38
2023-05-19T14:29:23.138Z,92050.03
2023-05-19T14:32:09.005Z,92048.56
2023-05-19T14:34:55.023Z,92049.69
2023-05-19T14:37:40.926Z,92050.06
2023-05-19T14:40:26.800Z,92044.41
2023-05-19T14:43:13.837Z,92048.63
2023-05-19T14:46:00.142Z,92038.31
2023-05-19T14:48:45.882Z,92043.66
2023-05-19T14:51:31.803Z,92044.75
2023-05-19T14:54:17.868Z,92044.38
2023-05-19T14:57:03.905Z,92044.38
2023-05-19T14:59:49.721Z,92037.56
2023-05-19T15:02:35.583Z,92043.22
2023-05-19T15:05:21.554Z,92042.81
2023-05-19T15:08:07.526Z,92037.59
2023-05-19T15:10:53.361Z,92043.66
2023-05-19T15:13:39.342Z,92040.56
2023-05-19T15:16:25.308Z,92043.56
2023-05-19T15:19:11.368Z,92040.19
2023-05-19T15:21:57.293Z,92031.97
2023-05-19T15:24:43.135Z,92039.84
2023-05-19T15:27:29.305Z,92050.00
2023-05-19T15:30:15.398Z,92047.16
2023-05-19T15:33:01.258Z,92050.56
2023-05-19T15:35:47.332Z,92051.25
2023-05-19T15:38:33.222Z,92046.06
2023-05-19T15:41:19.147Z,92032.16
2023-05-19T15:44:05.250Z,92042.22
2023-05-19T15:46:51.336Z,92040.91
2023-05-19T15:49:37.585Z,92045.97
2023-05-19T15:52:23.508Z,92045.22
2023-05-19T15:55:09.396Z,92047.56
2023-05-19T15:57:55.476Z,92053.91
2023-05-19T16:00:41.350Z,92050.38
2023-05-19T16:03:27.424Z,92047.38
2023-05-19T16:06:13.744Z,92047.91
2023-05-19T16:09:01.715Z,92044.53
2023-05-19T16:11:47.643Z,92044.00
2023-05-19T16:14:33.692Z,92046.44
2023-05-19T16:17:19.553Z,92038.84
2023-05-19T16:20:05.544Z,92046.38
2023-05-19T16:22:51.501Z,92032.28
2023-05-19T16:25:37.718Z,92034.66
2023-05-19T16:28:25.010Z,92033.63
2023-05-19T16:31:11.621Z,92035.00
2023-05-19T16:33:57.517Z,92026.69
2023-05-19T16:36:43.493Z,92021.88
2023-05-19T16:39:29.501Z,92020.22
2023-05-19T16:42:15.470Z,92019.63
2023-05-19T16:45:01.437Z,92008.34
2023-05-19T16:47:47.287Z,92021.31
2023-05-19T16:50:33.352Z,92011.16
2023-05-19T16:53:19.553Z,92013.25
2023-05-19T16:56:07.470Z,92014.97
2023-05-19T16:58:53.405Z,92013.59
2023-05-19T17:01:39.568Z,92014.53
2023-05-19T17:04:26.199Z,92015.72
2023-05-19T17:07:13.285Z,92011.44
2023-05-19T17:09:59.187Z,92009.53
2023-05-19T17:12:45.078Z,92005.91
2023-05-19T17:15:31.017Z,92010.81
2023-05-19T17:18:16.846Z,92010.75
2023-05-19T17:21:03.047Z,91997.78
2023-05-19T17:23:49.355Z,92002.22
2023-05-19T17:26:35.181Z,92007.16
2023-05-19T17:29:21.073Z,92012.06
2023-05-19T17:32:07.050Z,92009.09
2023-05-19T17:34:52.966Z,92006.56
2023-05-19T17:37:38.912Z,92006.66
2023-05-19T17:40:24.857Z,92013.28
2023-05-19T17:43:10.776Z,92006.38
2023-05-19T17:45:58.730Z,92006.47
2023-05-19T17:48:45.774Z,92003.72
2023-05-19T17:51:31.658Z,92000.88
2023-05-19T17:54:17.548Z,91996.56
2023-05-19T17:57:03.547Z,91998.22
2023-05-19T17:59:49.905Z,92003.84
2023-05-19T18:02:35.960Z,92010.72
2023-05-19T18:05:24.246Z,92004.41
2023-05-19T18:08:10.301Z,92004.91
2023-05-19T18:10:56.328Z,92000.94
2023-05-19T18:13:42.303Z,91999.50
2023-05-19T18:16:28.406Z,92009.41
2023-05-19T18:19:14.683Z,91995.06
2023-05-19T18:22:00.824Z,91999.41
2023-05-19T18:24:46.876Z,91995.69
2023-05-19T18:27:32.770Z,91999.38
2023-05-19T18:30:18.756Z,91993.66
2023-05-19T18:33:04.768Z,91997.84
2023-05-19T18:35:50.944Z,92002.03
2023-05-19T18:38:36.989Z,91997.84
2023-05-19T18:41:23.028Z,91991.28
2023-05-19T18:44:08.967Z,91997.03
2023-05-19T18:46:54.838Z,91997.75
2023-05-19T18:49:40.977Z,91995.19
2023-05-19T18:52:26.922Z,91998.09
2023-05-19T18:55:13.247Z,91996.47
2023-05-19T18:57:59.023Z,92002.50
2023-05-19T19:00:44.912Z,91997.03
2023-05-19T19:03:31.232Z,92002.06
2023-05-19T19:06:17.107Z,91989.88
2023-05-19T19:09:03.062Z,91995.22
2023-05-19T19:11:48.999Z,91992.69
2023-05-19T19:14:34.915Z,91998.34
2023-05-19T19:17:20.873Z,92000.22
2023-05-19T19:20:07.174Z,92003.41
2023-05-19T19:22:53.154Z,91997.94
2023-05-19T19:25:39.183Z,92007.38
2023-05-19T19:28:25.173Z,92009.25
2023-05-19T19:31:11.243Z,92008.38
2023-05-19T19:33:57.253Z,92016.16
2023-05-19T19:36:43.181Z,92019.78
2023-05-19T19:39:29.105Z,92022.41
2023-05-19T19:42:14.883Z,92011.22
2023-05-19T19:45:00.938Z,92019.56
2023-05-19T19:47:47.040Z,92019.16
2023-05-19T19:50:33.498Z,92022.69
2023-05-19T19:53:19.794Z,92023.34
2023-05-19T19:56:05.835Z,92020.19
2023-05-19T19:58:51.782Z,92018.22
2023-05-19T20:01:37.871Z,92021.00
2023-05-19T20:04:24.114Z,92026.56
2023-05-19T20:07:10.512Z,92023.38
2023-05-19T20:09:56.685Z,92026.56
2023-05-19T20:12:42.489Z,92022.19
2023-05-19T20:15:28.501Z,92031.28
2023-05-19T20:18:14.501Z,92028.88
2023-05-19T20:21:00.410Z,92025.59
2023-05-19T20:23:46.443Z,92025.34
2023-05-19T20:26:32.406Z,92023.81
2023-05-19T20:29:18.260Z,92025.94
2023-05-19T20:32:04.201Z,92027.34
2023-05-19T20:34:50.068Z,92033.41
2023-05-19T20:37:36.413Z,92025.50
2023-05-19T20:40:22.238Z,92025.56
2023-05-19T20:43:08.169Z,92031.22
2023-05-19T20:45:54.313Z,92037.81
2023-05-19T20:48:42.569Z,92031.75
2023-05-19T20:51:28.493Z,92027.16
2023-05-19T20:54:14.354Z,92031.31
2023-05-19T20:57:00.294Z,92029.03
2023-05-19T20:59:46.253Z,92027.94
2023-05-19T21:02:32.262Z,92021.66
2023-05-19T21:05:18.344Z,92020.84
2023-05-19T21:08:04.386Z,92034.00
2023-05-19T21:10:50.345Z,92032.16
2023-05-19T21:13:36.395Z,92020.84
2023-05-19T21:16:22.330Z,92025.66
2023-05-19T21:19:08.257Z,92029.06
2023-05-19T21:21:54.251Z,92024.13
2023-05-19T21:24:40.154Z,92016.75
2023-05-19T21:27:25.989Z,92016.84
2023-05-19T21:30:11.953Z,92011.47
2023-05-19T21:32:57.836Z,92012.00
2023-05-19T21:35:44.050Z,92009.59
2023-05-19T21:38:30.104Z,92007.94
2023-05-19T21:41:15.858Z,92002.19
2023-05-19T21:44:01.824Z,91995.06
2023-05-19T21:46:47.825Z,91994.72
2023-05-19T21:49:33.797Z,91998.22
2023-05-19T21:52:19.864Z,91992.28
2023-05-19T21:55:05.833Z,91977.41
2023-05-19T21:57:51.865Z,91977.22
2023-05-19T22:00:37.773Z,91976.00
2023-05-19T22:03:23.811Z,91972.63
2023-05-19T22:06:10.100Z,91975.34
2023-05-19T22:08:56.148Z,91974.41
2023-05-19T22:11:41.941Z,91981.78
2023-05-19T22:14:27.979Z,91970.31
2023-05-19T22:17:13.791Z,91982.69
2023-05-19T22:19:59.738Z,91982.25
2023-05-19T22:22:45.710Z,91981.97
2023-05-19T22:25:31.680Z,91973.84
2023-05-19T22:28:17.689Z,91983.31
2023-05-19T22:31:03.841Z,91971.53
2023-05-19T22:33:49.758Z,91981.63
2023-05-19T22:36:36.047Z,91977.84
2023-05-19T22:39:22.083Z,91979.69
2023-05-19T22:42:07.962Z,91979.75
2023-05-19T22:44:53.933Z,91978.81
2023-05-19T22:47:39.779Z,91980.81
2023-05-19T22:50:25.767Z,91979.78
2023-05-19T22:53:11.738Z,91978.16
2023-05-19T22:55:57.634Z,91974.44
2023-05-19T22:58:43.573Z,91963.19
2023-05-19T23:01:29.478Z,91971.22
2023-05-19T23:04:15.425Z,91966.13
2023-05-19T23:07:01.650Z,91960.06
2023-05-19T23:09:47.362Z,91957.72
2023-05-19T23:12:33.380Z,91958.16
2023-05-19T23:15:19.449Z,91962.66
2023-05-19T23:18:05.423Z,91965.59
2023-05-19T23:20:51.457Z,91967.19
2023-05-19T23:23:37.451Z,91957.13
2023-05-19T23:26:23.433Z,91955.72
2023-05-19T23:29:09.386Z,91964.69
2023-05-19T23:31:55.303Z,91952.00
2023-05-19T23:34:41.583Z,91950.69
2023-05-19T23:37:27.622Z,91954.94
2023-05-19T23:40:13.552Z,91949.16
2023-05-19T23:42:59.601Z,91956.22
2023-05-19T23:45:45.539Z,91957.19
2023-05-19T23:48:31.577Z,91952.78
2023-05-19T23:51:17.597Z,91942.19
2023-05-19T23:54:03.456Z,91947.50
2023-05-19T23:56:49.242Z,91944.91
2023-05-19T23:59:35.196Z,91944.84
